sim
Sign-in with your pilot id or email,
or register
Callsign
Passwort

Schedule Details

Flight Number: OEO6763
Departure: London Heathrow Airport (EGLL) at 19:25
Arrival: Mumbai Chhatrapati Shivaji International Airport (VABB) at 04:25

Weather Information
Getting current METAR information for EGLL 152350Z AUTO 21008KT 9999 -RA SCT040/// //////CB 06/05 Q0999
Getting current METAR information for VABB 160000Z 00000KT 2100 HZ NSC 24/19 Q1012 NOSIG

Schedule Frequency

Route Map